createdAt,value
2017-03-29T18:13:12.882Z,969.11
2017-03-29T18:13:53.447Z,969.1
2017-03-29T18:14:34.025Z,969.08
2017-03-29T18:15:14.645Z,969.13
2017-03-29T18:15:55.215Z,969.14
2017-03-29T18:16:35.793Z,969.12
2017-03-29T18:17:16.358Z,969.13
2017-03-29T18:17:56.967Z,969.16
2017-03-29T18:18:37.530Z,969.14
2017-03-29T18:19:18.106Z,969.14
2017-03-29T18:19:58.688Z,969.16
2017-03-29T18:20:39.261Z,969.18
2017-03-29T18:21:19.841Z,969.17
2017-03-29T18:22:00.422Z,969.19
2017-03-29T18:22:40.999Z,969.21
2017-03-29T18:23:21.582Z,969.19
2017-03-29T18:24:02.166Z,969.2
2017-03-29T18:24:42.745Z,969.22
2017-03-29T18:25:23.325Z,969.23
2017-03-29T18:26:03.910Z,969.26
2017-03-29T18:26:44.488Z,969.27
2017-03-29T18:27:25.068Z,969.28
2017-03-29T18:28:05.654Z,969.25
2017-03-29T18:28:46.232Z,969.23
2017-03-29T18:29:26.805Z,969.23
2017-03-29T18:30:07.384Z,969.25
2017-03-29T18:30:47.967Z,969.26
2017-03-29T18:31:28.546Z,969.25
2017-03-29T18:32:09.115Z,969.24
2017-03-29T18:32:49.710Z,969.24
2017-03-29T18:33:30.291Z,969.29
2017-03-29T18:34:10.876Z,969.3
2017-03-29T18:34:51.462Z,969.31
2017-03-29T18:35:32.042Z,969.3
2017-03-29T18:36:12.631Z,969.3
2017-03-29T18:36:53.215Z,969.32
2017-03-29T18:37:33.800Z,969.35
2017-03-29T18:38:14.384Z,969.38
2017-03-29T18:38:54.951Z,969.39
2017-03-29T18:39:35.507Z,969.4
2017-03-29T18:40:16.075Z,969.4
2017-03-29T18:40:56.645Z,969.4
2017-03-29T18:41:37.232Z,969.4
2017-03-29T18:42:17.809Z,969.44
2017-03-29T18:42:58.398Z,969.44
2017-03-29T18:43:38.985Z,969.44
2017-03-29T18:44:19.570Z,969.43
2017-03-29T18:45:00.148Z,969.47
2017-03-29T18:45:40.730Z,969.43
2017-03-29T18:46:21.316Z,969.48
2017-03-29T18:47:01.901Z,969.5
2017-03-29T18:47:42.491Z,969.48
2017-03-29T18:48:23.075Z,969.49
2017-03-29T18:49:03.671Z,969.52
2017-03-29T18:49:44.231Z,969.51
2017-03-29T18:50:24.812Z,969.55
2017-03-29T18:51:05.388Z,969.53
2017-03-29T18:51:45.971Z,969.55
2017-03-29T18:52:26.554Z,969.52
2017-03-29T18:53:07.136Z,969.52
2017-03-29T18:53:47.720Z,969.56
2017-03-29T18:54:28.331Z,969.53
2017-03-29T18:55:08.910Z,969.57
2017-03-29T18:55:49.489Z,969.58
2017-03-29T18:56:30.060Z,969.59
2017-03-29T18:57:10.652Z,969.57
2017-03-29T18:57:51.240Z,969.59
2017-03-29T18:58:31.817Z,969.61
2017-03-29T18:59:12.388Z,969.62
2017-03-29T18:59:52.965Z,969.63
2017-03-29T19:00:33.568Z,969.65
2017-03-29T19:01:14.136Z,969.67
2017-03-29T19:01:54.715Z,969.67
2017-03-29T19:02:35.300Z,969.66
2017-03-29T19:03:15.880Z,969.7
2017-03-29T19:03:56.468Z,969.73
2017-03-29T19:04:37.070Z,969.73
2017-03-29T19:05:17.644Z,969.75
2017-03-29T19:05:58.243Z,969.72
2017-03-29T19:06:38.825Z,969.77
2017-03-29T19:07:19.410Z,969.71
2017-03-29T19:07:59.997Z,969.76
2017-03-29T19:08:40.574Z,969.79
2017-03-29T19:09:21.157Z,969.76
2017-03-29T19:10:01.735Z,969.8
2017-03-29T19:10:42.322Z,969.77
2017-03-29T19:11:22.874Z,969.84
2017-03-29T19:12:03.419Z,969.81
2017-03-29T19:12:43.988Z,969.81
2017-03-29T19:13:24.546Z,969.83
2017-03-29T19:14:05.096Z,969.84
2017-03-29T19:14:45.659Z,969.83
2017-03-29T19:15:26.209Z,969.86
2017-03-29T19:16:06.812Z,969.85
2017-03-29T19:16:47.376Z,969.89
2017-03-29T19:17:27.936Z,969.85
2017-03-29T19:18:08.500Z,969.86
2017-03-29T19:18:49.062Z,969.9
